createdAt,value
2022-08-01T00:01:31.885Z,100576.28
2022-08-01T00:03:59.982Z,100576.44
2022-08-01T00:06:29.237Z,100580.16
2022-08-01T00:08:57.730Z,100585.97
2022-08-01T00:11:26.643Z,100575.03
2022-08-01T00:13:55.164Z,100570.69
2022-08-01T00:16:26.253Z,100575.97
2022-08-01T00:18:55.216Z,100579.34
2022-08-01T00:21:23.601Z,100582.19
2022-08-01T00:23:51.574Z,100577.28
2022-08-01T00:26:19.682Z,100582.59
2022-08-01T00:28:47.939Z,100577.34
2022-08-01T00:31:15.865Z,100572.13
2022-08-01T00:33:43.990Z,100580.03
2022-08-01T00:36:12.202Z,100575.94
2022-08-01T00:38:40.543Z,100582.94
2022-08-01T00:41:08.560Z,100586.84
2022-08-01T00:43:36.929Z,100581.06
2022-08-01T00:46:04.972Z,100579.63
2022-08-01T00:48:32.912Z,100585.09
2022-08-01T00:51:01.281Z,100583.78
2022-08-01T00:53:51.268Z,100585.63
2022-08-01T00:56:19.036Z,100588.88
2022-08-01T00:58:47.121Z,100586.78
2022-08-01T01:01:21.940Z,100585.38
2022-08-01T01:04:00.184Z,100583.63
2022-08-01T01:06:58.595Z,100582.50
2022-08-01T01:10:00.141Z,100589.38
2022-08-01T01:12:50.258Z,100587.03
2022-08-01T01:15:41.662Z,100583.63
2022-08-01T01:18:21.901Z,100587.84
2022-08-01T01:21:29.941Z,100585.34
2022-08-01T01:24:15.291Z,100586.56
2022-08-01T01:27:07.974Z,100586.53
2022-08-01T01:29:58.600Z,100595.13
2022-08-01T01:32:39.803Z,100586.97
2022-08-01T01:35:12.114Z,100577.69
2022-08-01T01:37:41.841Z,100587.66
2022-08-01T01:40:12.942Z,100583.91
2022-08-01T01:42:43.592Z,100587.66
2022-08-01T01:45:13.425Z,100576.97
2022-08-01T01:47:44.181Z,100583.19
2022-08-01T01:50:13.984Z,100578.22
2022-08-01T01:52:45.524Z,100576.88
2022-08-01T01:55:16.565Z,100583.72
2022-08-01T01:57:46.526Z,100586.31
2022-08-01T02:00:16.862Z,100584.91
2022-08-01T02:02:47.327Z,100583.47
2022-08-01T02:05:16.752Z,100589.16
2022-08-01T02:07:46.232Z,100587.03
2022-08-01T02:10:18.596Z,100578.78
2022-08-01T02:12:51.273Z,100585.31
2022-08-01T02:15:20.952Z,100578.53
2022-08-01T02:17:51.632Z,100580.66
2022-08-01T02:20:19.838Z,100570.03
2022-08-01T02:22:59.132Z,100578.78
2022-08-01T02:25:35.312Z,100572.00
2022-08-01T02:28:14.702Z,100570.44
2022-08-01T02:30:48.562Z,100569.50
2022-08-01T02:33:20.602Z,100576.63
2022-08-01T02:36:32.084Z,100570.44
2022-08-01T02:38:46.053Z,100571.72
2022-08-01T02:41:20.659Z,100571.13
2022-08-01T02:43:53.681Z,100571.91
2022-08-01T02:46:29.958Z,100577.84
2022-08-01T02:49:02.224Z,100569.53
2022-08-01T02:51:32.656Z,100578.09
2022-08-01T02:54:04.038Z,100575.09
2022-08-01T02:56:37.599Z,100569.59
2022-08-01T02:59:19.780Z,100570.38
2022-08-01T03:01:52.775Z,100572.34
2022-08-01T03:04:24.589Z,100570.94
2022-08-01T03:06:54.412Z,100569.56
2022-08-01T03:09:24.538Z,100577.03
2022-08-01T03:11:53.898Z,100579.94
2022-08-01T03:14:25.129Z,100579.19
2022-08-01T03:16:56.269Z,100575.09
2022-08-01T03:19:27.879Z,100570.94
2022-08-01T03:21:59.870Z,100570.41
2022-08-01T03:24:29.794Z,100570.19
2022-08-01T03:26:59.942Z,100565.97
2022-08-01T03:29:31.190Z,100571.47
2022-08-01T03:32:01.599Z,100564.78
2022-08-01T03:34:31.140Z,100569.50
2022-08-01T03:37:13.949Z,100565.69
2022-08-01T03:39:51.689Z,100561.94
2022-08-01T03:42:25.099Z,100567.25
2022-08-01T03:45:04.169Z,100565.66
2022-08-01T03:47:41.901Z,100571.22
2022-08-01T03:50:15.890Z,100567.94
2022-08-01T03:52:48.069Z,100565.88
2022-08-01T03:55:18.250Z,100566.47
2022-08-01T03:57:48.351Z,100568.22
2022-08-01T04:00:19.664Z,100572.63
2022-08-01T04:02:50.070Z,100576.16
2022-08-01T04:05:22.059Z,100581.84
2022-08-01T04:07:58.138Z,100570.09
2022-08-01T04:10:26.590Z,100572.91
2022-08-01T04:12:55.330Z,100574.47
2022-08-01T04:15:23.271Z,100574.69
2022-08-01T04:17:51.322Z,100570.34
2022-08-01T04:20:19.690Z,100578.81
2022-08-01T04:22:48.289Z,100575.44
2022-08-01T04:25:23.009Z,100583.91
2022-08-01T04:27:54.399Z,100587.22
2022-08-01T04:30:28.610Z,100588.63
2022-08-01T04:33:00.310Z,100586.00
2022-08-01T04:36:02.964Z,100588.28
2022-08-01T04:38:25.909Z,100596.91
2022-08-01T04:40:55.119Z,100592.00
2022-08-01T04:43:24.249Z,100595.03
2022-08-01T04:45:53.139Z,100594.25
2022-08-01T04:48:23.306Z,100594.09
2022-08-01T04:50:52.644Z,100600.28
2022-08-01T04:53:24.700Z,100607.88
2022-08-01T04:55:53.629Z,100610.69
2022-08-01T04:58:21.589Z,100604.44
2022-08-01T05:00:49.797Z,100600.47
2022-08-01T05:03:18.240Z,100607.44
2022-08-01T05:05:46.691Z,100609.66
2022-08-01T05:08:14.782Z,100601.72
2022-08-01T05:10:43.729Z,100598.63
2022-08-01T05:13:12.269Z,100602.47
2022-08-01T05:15:40.390Z,100593.47
2022-08-01T05:18:10.029Z,100602.53
2022-08-01T05:20:38.550Z,100597.00
2022-08-01T05:23:06.709Z,100601.31
2022-08-01T05:25:56.676Z,100603.88
2022-08-01T05:28:25.799Z,100599.53
2022-08-01T05:30:56.264Z,100595.88
2022-08-01T05:33:24.370Z,100603.31
2022-08-01T05:35:52.388Z,100604.69
2022-08-01T05:38:20.689Z,100600.53
2022-08-01T05:40:48.784Z,100610.63
2022-08-01T05:43:16.899Z,100608.84
2022-08-01T05:45:46.231Z,100610.22
2022-08-01T05:48:14.872Z,100610.09
2022-08-01T05:50:42.909Z,100606.78
2022-08-01T05:53:11.329Z,100611.75
2022-08-01T05:55:39.287Z,100614.38
2022-08-01T05:58:07.399Z,100617.25
2022-08-01T06:00:40.992Z,100624.84
2022-08-01T06:03:08.984Z,100622.09
2022-08-01T06:05:37.048Z,100623.72
2022-08-01T06:08:05.393Z,100620.53
2022-08-01T06:10:33.485Z,100626.22
2022-08-01T06:13:04.232Z,100623.28
2022-08-01T06:15:34.086Z,100627.34
2022-08-01T06:18:02.187Z,100629.22
2022-08-01T06:20:30.125Z,100622.97
2022-08-01T06:22:59.914Z,100625.72
2022-08-01T06:25:30.916Z,100626.38
2022-08-01T06:27:59.066Z,100628.72
2022-08-01T06:30:27.534Z,100632.28
2022-08-01T06:32:59.929Z,100630.34
2022-08-01T06:35:30.894Z,100632.84
2022-08-01T06:37:59.025Z,100629.31
2022-08-01T06:40:26.989Z,100629.03
2022-08-01T06:42:55.188Z,100632.25
2022-08-01T06:45:28.391Z,100626.63
2022-08-01T06:47:56.569Z,100628.16
2022-08-01T06:50:24.580Z,100633.19
2022-08-01T06:52:52.648Z,100636.47
2022-08-01T06:55:21.030Z,100630.06
2022-08-01T06:57:51.569Z,100631.28
2022-08-01T07:00:23.700Z,100631.31
2022-08-01T07:02:53.338Z,100634.06
2022-08-01T07:05:21.718Z,100638.47
2022-08-01T07:07:50.076Z,100637.69
2022-08-01T07:10:19.018Z,100639.94
2022-08-01T07:12:46.950Z,100639.44
2022-08-01T07:15:16.784Z,100637.28
2022-08-01T07:17:45.088Z,100630.16
2022-08-01T07:20:16.283Z,100634.63
2022-08-01T07:22:47.466Z,100635.59
2022-08-01T07:25:16.668Z,100634.81
2022-08-01T07:27:46.026Z,100639.72
2022-08-01T07:30:14.341Z,100635.25
2022-08-01T07:32:42.537Z,100636.78
2022-08-01T07:35:10.964Z,100637.59
2022-08-01T07:37:48.431Z,100640.47
2022-08-01T07:40:19.217Z,100636.59
2022-08-01T07:42:48.278Z,100637.09
2022-08-01T07:45:16.501Z,100633.13
2022-08-01T07:47:45.225Z,100638.94
2022-08-01T07:50:14.206Z,100635.56
2022-08-01T07:52:42.285Z,100638.16
2022-08-01T07:55:16.455Z,100633.84
2022-08-01T07:57:45.173Z,100635.47
2022-08-01T08:00:14.840Z,100630.31
2022-08-01T08:02:43.617Z,100635.41
2022-08-01T08:05:12.267Z,100638.16
2022-08-01T08:07:40.796Z,100632.28
2022-08-01T08:10:09.568Z,100627.31
2022-08-01T08:12:37.657Z,100620.47
2022-08-01T08:15:07.139Z,100622.34
2022-08-01T08:17:35.577Z,100624.97
2022-08-01T08:20:09.074Z,100626.00
2022-08-01T08:22:38.843Z,100624.59
2022-08-01T08:25:08.201Z,100634.75
2022-08-01T08:27:37.960Z,100627.84
2022-08-01T08:30:12.540Z,100634.50
2022-08-01T08:32:41.129Z,100635.22
2022-08-01T08:35:11.939Z,100630.47
2022-08-01T08:37:47.399Z,100629.53
2022-08-01T08:40:18.008Z,100635.53
2022-08-01T08:42:47.868Z,100631.69
2022-08-01T08:45:15.865Z,100638.47
2022-08-01T08:47:47.940Z,100641.63
2022-08-01T08:50:16.664Z,100630.06
2022-08-01T08:52:46.000Z,100630.69
2022-08-01T08:55:16.756Z,100630.47
2022-08-01T08:57:46.069Z,100632.94
2022-08-01T09:00:15.196Z,100630.78
2022-08-01T09:02:45.117Z,100623.41
2022-08-01T09:05:19.077Z,100618.84
2022-08-01T09:07:47.997Z,100627.41
2022-08-01T09:10:16.277Z,100632.34
2022-08-01T09:13:07.797Z,100628.53
2022-08-01T09:15:45.119Z,100621.94
2022-08-01T09:18:53.617Z,100625.63
2022-08-01T09:21:25.272Z,100629.13
2022-08-01T09:23:55.979Z,100614.06
2022-08-01T09:26:32.756Z,100613.16
2022-08-01T09:29:05.978Z,100627.06
2022-08-01T09:31:47.887Z,100620.34
2022-08-01T09:34:19.820Z,100626.22
2022-08-01T09:36:55.789Z,100628.59
2022-08-01T09:39:29.216Z,100610.97
2022-08-01T09:42:00.658Z,100606.25
2022-08-01T09:44:55.095Z,100618.75
2022-08-01T09:47:38.822Z,100609.59
2022-08-01T09:50:11.238Z,100612.53
2022-08-01T09:52:40.930Z,100606.00
2022-08-01T09:55:11.008Z,100610.00
2022-08-01T09:57:39.927Z,100606.03
2022-08-01T10:00:35.680Z,100601.91
2022-08-01T10:03:28.246Z,100602.53
2022-08-01T10:05:58.243Z,100598.38
2022-08-01T10:08:28.556Z,100601.03
2022-08-01T10:11:13.047Z,100594.66
2022-08-01T10:13:45.037Z,100594.69
2022-08-01T10:16:14.508Z,100600.03
2022-08-01T10:18:46.983Z,100591.28
2022-08-01T10:21:16.150Z,100589.22
2022-08-01T10:24:06.436Z,100588.09
2022-08-01T10:26:36.875Z,100591.19
2022-08-01T10:29:46.752Z,100585.31
2022-08-01T10:32:00.356Z,100581.09
2022-08-01T10:34:30.357Z,100581.72
2022-08-01T10:36:59.275Z,100580.59
2022-08-01T10:42:17.586Z,100568.69
2022-08-01T10:44:49.623Z,100569.13
2022-08-01T10:47:50.034Z,100583.34
2022-08-01T10:50:37.885Z,100565.38
2022-08-01T10:53:23.893Z,100565.28
2022-08-01T10:56:02.586Z,100555.06
2022-08-01T10:58:42.567Z,100563.91
2022-08-01T11:01:17.662Z,100560.28
2022-08-01T11:04:02.115Z,100556.47
2022-08-01T11:06:36.537Z,100557.59
2022-08-01T11:09:36.441Z,100551.47
2022-08-01T11:12:24.806Z,100544.50
2022-08-01T11:14:59.764Z,100542.69
2022-08-01T11:17:37.967Z,100550.63
2022-08-01T11:20:14.039Z,100537.88
2022-08-01T11:23:02.449Z,100533.78
2022-08-01T11:26:05.919Z,100521.56
2022-08-01T11:28:32.825Z,100523.63
2022-08-01T11:31:07.603Z,100521.38
2022-08-01T11:33:49.362Z,100512.03
2022-08-01T11:36:37.004Z,100519.41
2022-08-01T11:39:13.502Z,100511.88
2022-08-01T11:41:44.963Z,100510.28
2022-08-01T11:44:20.952Z,100499.84
2022-08-01T11:47:10.048Z,100505.63
2022-08-01T11:49:39.385Z,100502.16
2022-08-01T11:52:11.088Z,100491.13
2022-08-01T11:54:51.702Z,100497.78
2022-08-01T11:57:23.194Z,100493.69
2022-08-01T12:00:03.591Z,100491.19
2022-08-01T12:02:41.281Z,100481.72
2022-08-01T12:05:14.061Z,100479.66
2022-08-01T12:07:44.348Z,100490.16
2022-08-01T12:10:18.310Z,100462.03
2022-08-01T12:12:49.642Z,100462.56
2022-08-01T12:15:20.409Z,100473.47
2022-08-01T12:18:08.072Z,100470.72
2022-08-01T12:20:42.780Z,100457.00
2022-08-01T12:23:22.428Z,100462.47
2022-08-01T12:25:54.733Z,100459.47
2022-08-01T12:28:23.976Z,100454.31
2022-08-01T12:30:52.616Z,100468.75
2022-08-01T12:33:21.814Z,100463.69
2022-08-01T12:35:50.157Z,100455.09
2022-08-01T12:38:24.150Z,100447.22
2022-08-01T12:40:52.960Z,100439.50
2022-08-01T12:43:28.455Z,100448.25
2022-08-01T12:46:00.662Z,100439.28
2022-08-01T12:48:31.842Z,100438.91
2022-08-01T12:51:02.520Z,100427.66
2022-08-01T12:53:40.321Z,100425.88
2022-08-01T12:56:13.891Z,100424.50
2022-08-01T12:58:42.113Z,100421.41
2022-08-01T13:01:12.253Z,100429.47
2022-08-01T13:03:41.097Z,100426.56
2022-08-01T13:06:16.539Z,100422.47
2022-08-01T13:08:46.768Z,100421.91
2022-08-01T13:11:17.835Z,100421.69
2022-08-01T13:13:49.838Z,100419.16
2022-08-01T13:16:27.994Z,100419.31
2022-08-01T13:19:03.497Z,100411.59
2022-08-01T13:21:53.030Z,100407.75
2022-08-01T13:24:29.631Z,100406.31
2022-08-01T13:27:01.459Z,100402.97
2022-08-01T13:29:43.955Z,100398.38
2022-08-01T13:32:29.153Z,100397.28
2022-08-01T13:35:07.236Z,100398.59
2022-08-01T13:37:42.183Z,100396.50
2022-08-01T13:40:11.836Z,100404.28
2022-08-01T13:42:40.069Z,100398.72
2022-08-01T13:45:13.963Z,100390.63
2022-08-01T13:48:03.967Z,100387.81
2022-08-01T13:50:33.754Z,100396.19
2022-08-01T13:53:01.869Z,100388.34
2022-08-01T13:55:34.452Z,100391.28
2022-08-01T13:58:04.301Z,100383.44
2022-08-01T14:00:32.699Z,100381.22
2022-08-01T14:03:00.588Z,100382.28
2022-08-01T14:05:28.721Z,100377.19
2022-08-01T14:07:56.922Z,100373.03
2022-08-01T14:10:25.393Z,100372.88
2022-08-01T14:12:56.825Z,100382.47
2022-08-01T14:15:38.047Z,100382.50
2022-08-01T14:18:10.113Z,100378.69
2022-08-01T14:20:40.317Z,100362.38
2022-08-01T14:23:09.837Z,100370.09
2022-08-01T14:26:03.788Z,100368.81
2022-08-01T14:28:31.443Z,100370.09
2022-08-01T14:30:59.909Z,100367.28
2022-08-01T14:33:28.417Z,100363.97
2022-08-01T14:36:03.531Z,100373.00
2022-08-01T14:38:35.990Z,100367.38
2022-08-01T14:41:04.872Z,100363.97
2022-08-01T14:43:34.177Z,100370.59
2022-08-01T14:46:04.809Z,100367.75
2022-08-01T14:48:33.367Z,100361.50
2022-08-01T14:51:05.432Z,100362.44
2022-08-01T14:53:35.675Z,100358.13
2022-08-01T14:56:05.458Z,100362.94
2022-08-01T14:58:34.171Z,100352.88
2022-08-01T15:01:02.388Z,100349.31
2022-08-01T15:03:30.652Z,100355.06
2022-08-01T15:05:59.364Z,100339.56
2022-08-01T15:08:27.668Z,100343.47
2022-08-01T15:10:55.922Z,100349.75
2022-08-01T15:13:23.834Z,100348.31
2022-08-01T15:15:51.874Z,100339.56
2022-08-01T15:18:20.002Z,100342.19
2022-08-01T15:20:48.062Z,100337.03
2022-08-01T15:23:16.114Z,100334.00
2022-08-01T15:25:45.522Z,100333.00
2022-08-01T15:28:13.707Z,100323.00
2022-08-01T15:30:42.311Z,100325.13
2022-08-01T15:33:10.474Z,100317.34
2022-08-01T15:35:38.523Z,100323.72
2022-08-01T15:38:06.385Z,100317.78
2022-08-01T15:40:35.850Z,100323.59
2022-08-01T15:43:04.082Z,100315.00
2022-08-01T15:45:48.693Z,100322.59
2022-08-01T15:48:18.152Z,100315.19
2022-08-01T15:50:46.512Z,100317.19
2022-08-01T15:53:14.643Z,100317.03
2022-08-01T15:55:46.589Z,100316.47
2022-08-01T15:58:21.113Z,100313.69
2022-08-01T16:00:49.385Z,100307.94
2022-08-01T16:03:17.331Z,100312.56
2022-08-01T16:05:45.447Z,100311.72
2022-08-01T16:08:14.706Z,100305.44
2022-08-01T16:10:43.853Z,100302.03
2022-08-01T16:13:12.557Z,100307.22
2022-08-01T16:15:40.844Z,100303.16
2022-08-01T16:18:12.788Z,100297.22
2022-08-01T16:20:45.774Z,100302.81
2022-08-01T16:23:15.579Z,100299.09
2022-08-01T16:25:45.280Z,100282.34
2022-08-01T16:28:14.607Z,100284.16
2022-08-01T16:30:54.356Z,100288.75
2022-08-01T16:33:45.700Z,100286.38
2022-08-01T16:36:21.901Z,100293.16
2022-08-01T16:38:53.148Z,100291.44
2022-08-01T16:41:21.126Z,100285.94
2022-08-01T16:43:53.328Z,100282.88
2022-08-01T16:46:26.983Z,100283.13
2022-08-01T16:48:54.985Z,100278.31
2022-08-01T16:51:23.198Z,100281.66
2022-08-01T16:53:51.396Z,100283.91
2022-08-01T16:56:20.457Z,100280.91
2022-08-01T16:58:48.541Z,100281.63
2022-08-01T17:02:00.444Z,100285.44
2022-08-01T17:04:08.347Z,100277.03
2022-08-01T17:06:36.512Z,100276.72
2022-08-01T17:09:05.143Z,100274.28
2022-08-01T17:11:33.304Z,100275.56
2022-08-01T17:14:01.611Z,100283.91
2022-08-01T17:16:30.177Z,100277.06
2022-08-01T17:18:58.068Z,100272.16
2022-08-01T17:21:26.482Z,100269.72
2022-08-01T17:23:54.507Z,100281.38
2022-08-01T17:26:22.568Z,100279.59
2022-08-01T17:28:50.704Z,100275.22
2022-08-01T17:31:18.751Z,100274.50
2022-08-01T17:33:48.670Z,100271.91
2022-08-01T17:36:21.331Z,100284.66
2022-08-01T17:38:49.605Z,100276.00
2022-08-01T17:41:17.630Z,100287.13
2022-08-01T17:43:45.947Z,100286.25
2022-08-01T17:46:14.032Z,100286.38
2022-08-01T17:48:42.002Z,100293.75
2022-08-01T17:51:10.403Z,100292.69
2022-08-01T17:53:38.440Z,100294.63
2022-08-01T17:56:27.183Z,100293.28
2022-08-01T17:58:55.604Z,100293.91
2022-08-01T18:01:26.430Z,100285.97
2022-08-01T18:03:58.746Z,100287.69
2022-08-01T18:06:27.270Z,100292.09
2022-08-01T18:08:56.511Z,100292.75
2022-08-01T18:11:28.245Z,100291.56
2022-08-01T18:13:57.930Z,100301.34
2022-08-01T18:16:28.756Z,100302.56
2022-08-01T18:18:56.919Z,100301.50
2022-08-01T18:21:24.927Z,100305.63
2022-08-01T18:23:53.196Z,100309.63
2022-08-01T18:26:22.226Z,100307.13
2022-08-01T18:28:50.407Z,100304.53
2022-08-01T18:31:20.923Z,100307.47
2022-08-01T18:33:49.256Z,100318.66
2022-08-01T18:36:31.932Z,100313.44
2022-08-01T18:39:06.433Z,100316.09
2022-08-01T18:41:39.481Z,100328.59
2022-08-01T18:44:08.974Z,100326.81
2022-08-01T18:46:38.812Z,100322.88
2022-08-01T18:49:11.913Z,100334.25
2022-08-01T18:51:44.587Z,100341.75
2022-08-01T18:54:14.672Z,100338.69
2022-08-01T18:56:44.789Z,100335.34
2022-08-01T18:59:14.327Z,100350.25
2022-08-01T19:01:42.604Z,100349.03
2022-08-01T19:04:11.316Z,100351.06
2022-08-01T19:06:40.355Z,100348.41
2022-08-01T19:09:09.169Z,100358.63
2022-08-01T19:11:37.749Z,100356.78
2022-08-01T19:14:05.646Z,100370.13
2022-08-01T19:16:34.121Z,100375.28
2022-08-01T19:19:07.128Z,100374.56
2022-08-01T19:21:39.319Z,100381.22
2022-08-01T19:24:23.593Z,100388.72
2022-08-01T19:27:05.173Z,100392.66
2022-08-01T19:29:39.438Z,100401.72
2022-08-01T19:32:10.648Z,100394.84
2022-08-01T19:35:12.856Z,100401.53
2022-08-01T19:37:52.576Z,100410.63
2022-08-01T19:40:26.656Z,100410.81
2022-08-01T19:42:57.385Z,100422.44
2022-08-01T19:45:29.780Z,100422.38
2022-08-01T19:47:59.797Z,100422.84
2022-08-01T19:50:29.287Z,100430.63
2022-08-01T19:52:59.130Z,100428.06
2022-08-01T19:55:28.918Z,100436.56
2022-08-01T20:00:50.710Z,100439.91
2022-08-01T20:03:19.814Z,100436.66
2022-08-01T20:05:47.920Z,100440.41
2022-08-01T20:08:17.673Z,100449.75
2022-08-01T20:10:47.925Z,100458.72
2022-08-01T20:13:17.962Z,100463.13
2022-08-01T20:15:47.474Z,100459.00
2022-08-01T20:18:15.637Z,100462.41
2022-08-01T20:20:46.232Z,100467.94
2022-08-01T20:23:18.785Z,100469.38
2022-08-01T20:25:50.546Z,100460.25
2022-08-01T20:28:26.995Z,100459.06
2022-08-01T20:31:03.499Z,100456.09
2022-08-01T20:33:39.579Z,100454.69
2022-08-01T20:36:12.319Z,100461.09
2022-08-01T20:38:56.401Z,100462.91
2022-08-01T20:41:27.220Z,100452.00
2022-08-01T20:43:59.609Z,100459.25
2022-08-01T20:46:29.450Z,100463.75
2022-08-01T20:48:59.079Z,100466.72
2022-08-01T20:51:28.866Z,100466.03
2022-08-01T20:53:57.308Z,100463.94
2022-08-01T20:56:28.488Z,100464.88
2022-08-01T20:59:39.956Z,100462.16
2022-08-01T21:02:31.229Z,100473.88
2022-08-01T21:05:12.233Z,100482.06
2022-08-01T21:07:59.071Z,100472.81
2022-08-01T21:10:29.610Z,100475.69
2022-08-01T21:13:05.974Z,100485.53
2022-08-01T21:16:11.155Z,100488.78
2022-08-01T21:19:20.234Z,100475.59
2022-08-01T21:21:57.370Z,100471.56
2022-08-01T21:24:34.860Z,100468.06
2022-08-01T21:27:05.211Z,100474.31
2022-08-01T21:29:34.740Z,100481.84
2022-08-01T21:32:13.282Z,100474.34
2022-08-01T21:34:46.711Z,100477.56
2022-08-01T21:37:17.814Z,100473.22
2022-08-01T21:39:48.201Z,100482.28
2022-08-01T21:42:19.237Z,100470.59
2022-08-01T21:44:48.572Z,100472.03
2022-08-01T21:47:17.021Z,100477.72
2022-08-01T21:49:45.211Z,100471.22
2022-08-01T21:52:21.715Z,100475.59
2022-08-01T21:55:00.514Z,100471.91
2022-08-01T21:58:02.132Z,100476.34
2022-08-01T22:00:30.821Z,100469.03
2022-08-01T22:03:22.624Z,100466.88
2022-08-01T22:05:52.420Z,100479.22
2022-08-01T22:08:37.300Z,100470.59
2022-08-01T22:11:07.671Z,100471.06
2022-08-01T22:13:37.240Z,100464.25
2022-08-01T22:16:06.940Z,100474.13
2022-08-01T22:18:36.893Z,100468.91
2022-08-01T22:21:05.205Z,100470.09
2022-08-01T22:23:37.336Z,100467.00
2022-08-01T22:26:08.235Z,100468.59
2022-08-01T22:28:38.350Z,100463.47
2022-08-01T22:31:07.442Z,100459.28
2022-08-01T22:33:37.448Z,100461.84
2022-08-01T22:36:07.417Z,100457.53
2022-08-01T22:38:36.092Z,100457.84
2022-08-01T22:41:14.581Z,100455.22
2022-08-01T22:43:58.529Z,100451.75
2022-08-01T22:46:35.400Z,100450.94
2022-08-01T22:49:22.951Z,100444.19
2022-08-01T22:52:24.759Z,100446.97
2022-08-01T22:55:06.770Z,100451.97
2022-08-01T22:57:50.713Z,100452.59
2022-08-01T23:00:19.508Z,100448.81
2022-08-01T23:02:53.410Z,100459.09
2022-08-01T23:05:23.900Z,100457.28
2022-08-01T23:07:57.576Z,100449.56
2022-08-01T23:10:27.049Z,100449.22
2022-08-01T23:12:56.431Z,100456.25
2022-08-01T23:15:25.675Z,100449.41
2022-08-01T23:17:55.455Z,100449.59
2022-08-01T23:20:23.979Z,100454.22
2022-08-01T23:22:54.001Z,100454.38
2022-08-01T23:25:23.837Z,100456.84
2022-08-01T23:28:05.097Z,100454.53
2022-08-01T23:30:36.032Z,100449.13
2022-08-01T23:33:04.627Z,100456.00
2022-08-01T23:35:38.975Z,100448.22
2022-08-01T23:38:10.417Z,100454.41
2022-08-01T23:40:38.790Z,100450.44
2022-08-01T23:43:08.338Z,100450.25
2022-08-01T23:46:03.653Z,100448.41
2022-08-01T23:48:37.436Z,100449.03
2022-08-01T23:51:07.178Z,100453.53
2022-08-01T23:53:37.635Z,100447.97
2022-08-01T23:56:06.769Z,100440.16
2022-08-01T23:58:34.846Z,100447.22
